Time;durP1;ratioP1;P1;durP2;ratioP2;P2;SDS_P1;SDS_P2;PMS_P1;PMS_P2;Temp;Humidity;BMP_temperature;BMP_pressure;BME280_temperature;BME280_humidity;BME280_pressure;Samples;Min_cycle;Max_cycle;Signal;HPM_P1;HPM_P2
2023/10/24 00:00:14;;;;;;;6.78;4.40;;;;;;;12.93;100.00;99933.41;5054796;28;20060;-63
2023/10/24 00:02:40;;;;;;;11.23;4.90;;;;;;;12.92;100.00;99931.69;5051204;28;20995;-63
2023/10/24 00:05:06;;;;;;;11.68;5.22;;;;;;;12.95;100.00;99934.19;5060365;28;20070;-63
2023/10/24 00:07:31;;;;;;;6.55;4.50;;;;;;;12.93;100.00;99923.03;5062384;28;20040;-63
2023/10/24 00:09:57;;;;;;;6.90;4.65;;;;;;;12.87;100.00;99909.41;5053601;28;20025;-63
2023/10/24 00:12:22;;;;;;;11.50;4.95;;;;;;;12.83;100.00;99919.00;5042205;28;20064;-62
2023/10/24 00:14:48;;;;;;;9.10;5.05;;;;;;;12.80;100.00;99923.44;5053682;28;20084;-62
2023/10/24 00:17:13;;;;;;;7.55;4.88;;;;;;;12.85;100.00;99913.78;5055626;28;20043;-63
2023/10/24 00:19:39;;;;;;;8.80;4.75;;;;;;;12.85;100.00;99906.00;5061597;28;20028;-62
2023/10/24 00:22:04;;;;;;;9.65;4.22;;;;;;;12.87;100.00;99906.81;5036804;28;20040;-63
2023/10/24 00:24:29;;;;;;;8.20;4.68;;;;;;;12.91;100.00;99911.00;5050625;28;20384;-63
2023/10/24 00:26:55;;;;;;;8.70;5.30;;;;;;;12.88;100.00;99905.91;5056187;28;20151;-63
2023/10/24 00:29:21;;;;;;;10.75;4.45;;;;;;;12.91;100.00;99900.63;5055656;28;20089;-63
2023/10/24 00:31:47;;;;;;;5.65;4.47;;;;;;;12.87;100.00;99901.63;5057583;28;20039;-63
2023/10/24 00:34:12;;;;;;;10.27;4.75;;;;;;;12.88;100.00;99904.16;5059000;28;20033;-63
2023/10/24 00:36:40;;;;;;;7.63;4.63;;;;;;;12.85;100.00;99904.25;5056053;28;20047;-63
2023/10/24 00:39:06;;;;;;;9.00;4.93;;;;;;;12.85;100.00;99908.59;5057253;28;20036;-62
2023/10/24 00:41:31;;;;;;;9.90;5.22;;;;;;;12.89;100.00;99907.59;5063621;28;20800;-63
2023/10/24 00:43:57;;;;;;;9.95;4.30;;;;;;;12.87;100.00;99905.06;5050014;28;20067;-62
2023/10/24 00:46:23;;;;;;;8.75;4.57;;;;;;;12.86;100.00;99905.09;5049908;28;20580;-62
2023/10/24 00:48:49;;;;;;;8.02;4.93;;;;;;;12.84;100.00;99912.94;5042716;28;20032;-63
2023/10/24 00:51:15;;;;;;;7.97;4.50;;;;;;;12.86;100.00;99916.31;5059001;28;20107;-62
2023/10/24 00:53:41;;;;;;;6.53;4.35;;;;;;;12.91;100.00;99918.78;5057950;28;20497;-63
2023/10/24 00:56:08;;;;;;;8.45;4.85;;;;;;;12.94;100.00;99916.94;5056951;28;20107;-62
2023/10/24 00:58:35;;;;;;;12.48;4.80;;;;;;;12.96;100.00;99914.28;5053113;28;20036;-63
2023/10/24 01:01:01;;;;;;;8.02;5.03;;;;;;;12.99;100.00;99909.91;5054397;28;20036;-62
2023/10/24 01:03:27;;;;;;;9.68;4.93;;;;;;;12.99;100.00;99899.53;5051436;28;20036;-63
2023/10/24 01:05:53;;;;;;;10.48;5.53;;;;;;;13.00;100.00;99902.94;5054580;28;20036;-63
2023/10/24 01:08:18;;;;;;;8.20;4.60;;;;;;;13.00;100.00;99897.75;5052719;28;20032;-63
2023/10/24 01:10:44;;;;;;;11.00;5.07;;;;;;;12.99;100.00;99899.53;5061321;28;20490;-62
2023/10/24 01:13:09;;;;;;;11.65;4.28;;;;;;;12.98;100.00;99899.53;5056122;28;20043;-63
2023/10/24 01:15:35;;;;;;;8.77;4.60;;;;;;;13.00;100.00;99911.56;5059264;28;20044;-63
2023/10/24 01:18:02;;;;;;;7.35;4.38;;;;;;;12.99;100.00;99896.03;5056747;28;20039;-62
2023/10/24 01:20:28;;;;;;;6.95;4.10;;;;;;;13.02;100.00;99897.72;5056455;28;20233;-62
2023/10/24 01:22:53;;;;;;;10.82;5.85;;;;;;;13.07;100.00;99901.84;5054612;28;20031;-62
2023/10/24 01:25:19;;;;;;;9.85;4.45;;;;;;;13.10;100.00;99898.31;5059248;28;20139;-62
2023/10/24 01:27:45;;;;;;;9.43;4.13;;;;;;;13.12;100.00;99902.53;5054261;28;20143;-63
2023/10/24 01:30:12;;;;;;;9.85;3.67;;;;;;;13.14;100.00;99916.34;5055523;28;20032;-63
2023/10/24 01:32:38;;;;;;;9.02;4.40;;;;;;;13.21;100.00;99891.88;5055971;28;20036;-62
2023/10/24 01:35:04;;;;;;;7.13;4.10;;;;;;;13.24;100.00;99878.78;5054366;28;20086;-63
2023/10/24 01:37:29;;;;;;;7.07;3.88;;;;;;;13.22;100.00;99883.19;5050577;28;20036;-63
2023/10/24 01:39:55;;;;;;;8.25;4.00;;;;;;;13.19;100.00;99875.50;5052941;28;20035;-62
2023/10/24 01:42:20;;;;;;;6.05;3.92;;;;;;;13.13;100.00;99877.47;5054060;28;20046;-62
2023/10/24 01:44:45;;;;;;;9.15;4.32;;;;;;;13.05;100.00;99872.53;5057318;28;20056;-62
2023/10/24 01:47:11;;;;;;;6.45;3.65;;;;;;;13.04;100.00;99880.34;5055240;28;20158;-62
2023/10/24 01:49:36;;;;;;;6.40;4.18;;;;;;;12.98;100.00;99889.16;5053409;28;20039;-62
2023/10/24 01:52:01;;;;;;;8.35;4.05;;;;;;;12.97;100.00;99888.28;5052604;28;20040;-63
2023/10/24 01:54:27;;;;;;;4.78;3.63;;;;;;;12.96;100.00;99877.97;5055155;28;20040;-63
2023/10/24 01:56:52;;;;;;;5.40;3.22;;;;;;;12.93;100.00;99875.47;5049357;28;20029;-62
2023/10/24 01:59:17;;;;;;;5.15;2.95;;;;;;;12.91;100.00;99885.06;5054782;28;20067;-62
2023/10/24 02:01:43;;;;;;;10.13;3.53;;;;;;;12.95;100.00;99894.44;5055040;28;20104;-62
2023/10/24 02:04:08;;;;;;;5.57;2.65;;;;;;;13.01;100.00;99883.91;5059812;28;20043;-62
2023/10/24 02:06:34;;;;;;;8.80;2.97;;;;;;;13.07;100.00;99878.50;5037311;28;20044;-63
2023/10/24 02:08:59;;;;;;;6.10;2.90;;;;;;;13.12;100.00;99886.16;5056412;28;20051;-62
2023/10/24 02:11:24;;;;;;;3.85;2.63;;;;;;;13.15;100.00;99886.06;5062838;28;20155;-62
2023/10/24 02:13:50;;;;;;;4.85;2.50;;;;;;;13.18;100.00;99897.16;5058925;28;20047;-63
2023/10/24 02:16:15;;;;;;;8.23;3.47;;;;;;;13.21;100.00;99898.81;5063962;28;20029;-62
2023/10/24 02:18:41;;;;;;;6.18;2.95;;;;;;;13.22;100.00;99893.56;5067339;28;20186;-62
2023/10/24 02:21:09;;;;;;;4.40;2.55;;;;;;;13.23;100.00;99910.84;5053703;28;20924;-62
2023/10/24 02:23:37;;;;;;;4.18;2.53;;;;;;;13.21;100.00;99906.59;5058044;28;20037;-62
2023/10/24 02:26:02;;;;;;;8.45;3.00;;;;;;;13.20;100.00;99897.13;5056172;28;20028;-62
2023/10/24 02:28:28;;;;;;;7.95;2.80;;;;;;;13.15;100.00;99899.03;5060253;28;20043;-62
2023/10/24 02:30:53;;;;;;;6.72;2.70;;;;;;;13.08;100.00;99900.97;5065605;28;20044;-62
2023/10/24 02:33:19;;;;;;;6.40;3.17;;;;;;;13.05;100.00;99898.47;5056739;28;20033;-62
2023/10/24 02:35:44;;;;;;;4.82;2.42;;;;;;;13.04;100.00;99881.19;5062202;28;20036;-62
2023/10/24 02:38:10;;;;;;;4.78;1.90;;;;;;;12.97;100.00;99880.50;5060313;28;20040;-62
2023/10/24 02:40:35;;;;;;;6.15;2.40;;;;;;;12.97;100.00;99884.84;5059981;28;20562;-62
2023/10/24 02:43:00;;;;;;;3.55;2.03;;;;;;;12.99;100.00;99883.97;5054372;28;20041;-62
2023/10/24 02:45:26;;;;;;;2.35;1.67;;;;;;;13.00;100.00;99890.81;5064231;28;20511;-62
2023/10/24 02:47:51;;;;;;;3.58;1.90;;;;;;;13.07;100.00;99894.06;5059677;28;20048;-62
2023/10/24 02:50:16;;;;;;;10.15;2.78;;;;;;;13.14;100.00;99884.34;5059367;28;20040;-62
2023/10/24 02:52:42;;;;;;;5.07;2.22;;;;;;;13.17;100.00;99889.44;5050239;28;20060;-62
2023/10/24 02:55:08;;;;;;;6.25;2.83;;;;;;;13.20;100.00;99890.19;5057539;28;20566;-62
2023/10/24 02:57:34;;;;;;;5.30;2.78;;;;;;;13.23;100.00;99910.84;5059301;28;20505;-62
2023/10/24 03:00:00;;;;;;;3.60;2.05;;;;;;;13.27;100.00;99914.16;5069343;28;20137;-64
2023/10/24 03:02:25;;;;;;;5.90;2.67;;;;;;;13.28;100.00;99906.34;5062789;28;20110;-64
2023/10/24 03:04:50;;;;;;;6.82;2.35;;;;;;;13.29;100.00;99909.81;5068820;28;20107;-64
2023/10/24 03:07:16;;;;;;;6.75;2.10;;;;;;;13.31;100.00;99920.97;5062173;28;20040;-63
2023/10/24 03:09:41;;;;;;;5.93;2.67;;;;;;;13.31;100.00;99914.03;5057364;28;20037;-64
2023/10/24 03:12:09;;;;;;;7.07;2.22;;;;;;;13.31;100.00;99916.63;5045805;28;20040;-63
2023/10/24 03:14:35;;;;;;;6.45;2.42;;;;;;;13.31;100.00;99900.22;5062401;28;20066;-63
2023/10/24 03:17:00;;;;;;;5.80;2.20;;;;;;;13.31;100.00;99906.25;5044779;28;20040;-64
2023/10/24 03:19:27;;;;;;;3.85;2.03;;;;;;;13.30;100.00;99896.75;5062381;28;20032;-63
2023/10/24 03:21:53;;;;;;;5.07;1.95;;;;;;;13.28;100.00;99897.72;5063560;28;20075;-64
2023/10/24 03:24:18;;;;;;;3.60;2.08;;;;;;;13.27;100.00;99907.25;5061410;28;20037;-63
2023/10/24 03:26:43;;;;;;;5.88;2.67;;;;;;;13.28;100.00;99905.50;5048585;28;21018;-64
2023/10/24 03:29:09;;;;;;;3.35;2.13;;;;;;;13.28;100.00;99898.56;5044708;28;20075;-64
2023/10/24 03:31:35;;;;;;;2.13;1.70;;;;;;;13.30;100.00;99899.34;5059760;28;20068;-63
2023/10/24 03:34:01;;;;;;;4.78;1.92;;;;;;;13.32;100.00;99894.13;5062698;28;20053;-63
2023/10/24 03:36:27;;;;;;;4.03;1.63;;;;;;;13.30;100.00;99904.53;5062685;28;20381;-63
2023/10/24 03:38:52;;;;;;;3.08;1.20;;;;;;;13.31;100.00;99897.63;5062283;28;20044;-63
2023/10/24 03:41:17;;;;;;;3.90;1.30;;;;;;;13.31;100.00;99905.41;5064495;28;20115;-63
2023/10/24 03:43:48;;;;;;;4.63;1.38;;;;;;;13.30;100.00;99911.47;5051970;28;20081;-63
2023/10/24 03:46:14;;;;;;;3.22;1.38;;;;;;;13.28;100.00;99908.94;5063725;28;20032;-63
2023/10/24 03:48:40;;;;;;;2.35;1.27;;;;;;;13.29;100.00;99896.81;5064869;28;20628;-64
2023/10/24 03:51:05;;;;;;;3.83;1.20;;;;;;;13.28;100.00;99900.31;5060447;28;20036;-64
2023/10/24 03:53:31;;;;;;;2.60;1.15;;;;;;;13.27;100.00;99903.78;5065283;28;20067;-63
2023/10/24 03:56:00;;;;;;;3.35;1.33;;;;;;;13.23;100.00;99905.66;5061998;28;20035;-64
2023/10/24 03:58:26;;;;;;;3.13;1.42;;;;;;;13.24;100.00;99901.28;5055598;28;20486;-64
2023/10/24 04:00:52;;;;;;;2.45;1.38;;;;;;;13.23;100.00;99913.44;5061960;28;20415;-63
2023/10/24 04:03:19;;;;;;;6.38;1.77;;;;;;;13.24;100.00;99906.50;5061492;28;20036;-64
2023/10/24 04:05:45;;;;;;;5.78;1.80;;;;;;;13.26;100.00;99897.78;5066057;28;20051;-64
2023/10/24 04:08:10;;;;;;;3.13;1.52;;;;;;;13.25;100.00;99892.63;5064711;28;20028;-64
2023/10/24 04:10:35;;;;;;;5.90;1.63;;;;;;;13.25;100.00;99903.00;5063517;28;20487;-64
2023/10/24 04:13:01;;;;;;;5.03;1.45;;;;;;;13.26;100.00;99894.34;5060104;28;20036;-64
2023/10/24 04:15:27;;;;;;;3.80;1.25;;;;;;;13.26;100.00;99902.97;5066495;28;20157;-64
2023/10/24 04:17:53;;;;;;;1.98;1.33;;;;;;;13.22;100.00;99903.09;5055814;28;20045;-64
2023/10/24 04:20:19;;;;;;;1.63;1.05;;;;;;;13.21;100.00;99906.59;5065081;28;20491;-64
2023/10/24 04:22:47;;;;;;;3.97;1.40;;;;;;;13.19;100.00;99906.66;5062917;28;20054;-64
2023/10/24 04:25:12;;;;;;;3.30;1.30;;;;;;;13.18;100.00;99904.94;5037088;28;20036;-63
2023/10/24 04:27:37;;;;;;;1.80;1.13;;;;;;;13.17;100.00;99900.69;5043799;28;20045;-64
2023/10/24 04:30:04;;;;;;;2.22;1.08;;;;;;;13.21;100.00;99909.19;5047822;28;20564;-63
2023/10/24 04:32:30;;;;;;;2.40;1.48;;;;;;;13.23;100.00;99903.06;5060334;28;20068;-63
2023/10/24 04:34:56;;;;;;;3.25;1.00;;;;;;;13.23;100.00;99890.09;5046614;28;20033;-63
2023/10/24 04:37:21;;;;;;;3.97;1.35;;;;;;;13.25;100.00;99890.03;5057829;28;20044;-63
2023/10/24 04:39:46;;;;;;;2.10;1.10;;;;;;;13.25;100.00;99887.44;5057214;28;20064;-63
2023/10/24 04:42:13;;;;;;;2.80;1.55;;;;;;;13.25;100.00;99890.88;5059067;28;20992;-63
2023/10/24 04:44:38;;;;;;;7.13;1.60;;;;;;;13.22;100.00;99888.38;5063764;28;20037;-64
2023/10/24 04:47:04;;;;;;;1.77;0.90;;;;;;;13.21;100.00;99898.81;5059049;28;20025;-63
2023/10/24 04:49:29;;;;;;;2.33;0.73;;;;;;;13.18;100.00;99891.97;5057710;28;20135;-63
2023/10/24 04:51:54;;;;;;;1.73;0.90;;;;;;;13.19;100.00;99890.22;5057054;28;20075;-63
2023/10/24 04:54:20;;;;;;;2.85;1.00;;;;;;;13.20;100.00;99894.53;5063308;28;20064;-63
2023/10/24 04:56:45;;;;;;;1.58;1.10;;;;;;;13.20;100.00;99890.19;5056345;28;20068;-63
2023/10/24 04:59:11;;;;;;;1.25;0.73;;;;;;;13.19;100.00;99880.69;5065909;28;20107;-62
2023/10/24 05:01:39;;;;;;;0.75;0.65;;;;;;;13.16;100.00;99883.41;5064456;28;20051;-63
2023/10/24 05:04:05;;;;;;;0.93;0.50;;;;;;;13.15;100.00;99879.09;5056505;28;20071;-62
2023/10/24 05:06:31;;;;;;;0.82;0.60;;;;;;;13.14;100.00;99880.00;5055226;28;20033;-63
2023/10/24 05:08:57;;;;;;;2.05;0.70;;;;;;;13.13;100.00;99883.50;5052797;28;20627;-63
2023/10/24 05:11:22;;;;;;;1.25;0.98;;;;;;;13.14;100.00;99884.34;5058585;28;20032;-64
2023/10/24 05:13:47;;;;;;;1.45;0.57;;;;;;;13.14;100.00;99881.75;5061559;28;20028;-63
2023/10/24 05:16:13;;;;;;;0.68;0.68;;;;;;;13.15;100.00;99894.66;5053213;28;20033;-63
2023/10/24 05:18:38;;;;;;;1.05;0.82;;;;;;;13.13;100.00;99893.88;5054704;28;20040;-63
2023/10/24 05:21:03;;;;;;;2.05;0.73;;;;;;;13.12;100.00;99893.94;5058854;28;20032;-63
2023/10/24 05:23:29;;;;;;;1.05;0.80;;;;;;;13.10;100.00;99887.94;5055852;28;20037;-63
2023/10/24 05:25:55;;;;;;;1.10;0.73;;;;;;;13.02;100.00;99887.34;5021316;28;20093;-63
2023/10/24 05:28:20;;;;;;;3.30;0.60;;;;;;;12.95;100.00;99891.84;5049108;28;20044;-63
2023/10/24 05:30:46;;;;;;;0.98;0.43;;;;;;;12.95;100.00;99873.69;5057955;28;20049;-64
2023/10/24 05:33:11;;;;;;;2.45;0.60;;;;;;;12.88;100.00;99878.22;5056136;28;20613;-63
2023/10/24 05:35:37;;;;;;;0.93;0.70;;;;;;;12.85;100.00;99877.47;5056481;28;20032;-63
2023/10/24 05:38:02;;;;;;;0.70;0.50;;;;;;;12.83;100.00;99872.34;5056964;28;20097;-64
2023/10/24 05:40:27;;;;;;;0.95;0.50;;;;;;;12.82;100.00;99881.00;5056251;28;20021;-63
2023/10/24 05:42:53;;;;;;;2.10;0.80;;;;;;;12.83;100.00;99876.66;5056549;28;20064;-63
2023/10/24 05:45:18;;;;;;;0.93;0.60;;;;;;;12.78;100.00;99878.56;5057412;28;20036;-64
2023/10/24 05:47:44;;;;;;;2.55;1.00;;;;;;;12.73;100.00;99872.69;5046221;28;20116;-64
2023/10/24 05:50:11;;;;;;;1.88;0.65;;;;;;;12.66;100.00;99853.88;5063298;28;20069;-64
2023/10/24 05:52:36;;;;;;;1.23;0.60;;;;;;;12.59;100.00;99864.47;5065959;28;20039;-64
2023/10/24 05:55:01;;;;;;;1.15;0.77;;;;;;;12.52;100.00;99870.75;5055012;28;20024;-64
2023/10/24 05:57:30;;;;;;;1.85;0.70;;;;;;;12.47;100.00;99870.88;5059665;28;20071;-64
2023/10/24 05:59:56;;;;;;;2.15;0.80;;;;;;;12.42;100.00;99858.06;5059059;28;20037;-64
2023/10/24 06:02:21;;;;;;;1.42;1.00;;;;;;;12.38;100.00;99853.00;5065358;28;20090;-64
2023/10/24 06:04:47;;;;;;;0.70;0.70;;;;;;;12.33;100.00;99850.56;5063866;28;20040;-64
2023/10/24 06:07:13;;;;;;;3.80;0.90;;;;;;;12.30;100.00;99848.06;5063075;28;20044;-64
2023/10/24 06:09:39;;;;;;;3.45;1.00;;;;;;;12.27;100.00;99853.34;5061057;28;20076;-64
2023/10/24 06:12:04;;;;;;;1.38;0.93;;;;;;;12.25;100.00;99844.78;5059809;28;20067;-64
2023/10/24 06:14:32;;;;;;;2.83;0.90;;;;;;;12.26;100.00;99867.19;5059646;28;20527;-64
2023/10/24 06:16:58;;;;;;;1.70;1.05;;;;;;;12.25;100.00;99873.28;5052241;28;20945;-65
2023/10/24 06:19:23;;;;;;;2.45;1.10;;;;;;;12.24;100.00;99868.97;5055705;28;20139;-64
2023/10/24 06:21:48;;;;;;;1.73;1.00;;;;;;;12.24;100.00;99870.72;5059899;28;20040;-64
2023/10/24 06:24:14;;;;;;;1.05;0.93;;;;;;;12.23;100.00;99867.25;5056861;28;20036;-64
2023/10/24 06:26:39;;;;;;;1.95;1.20;;;;;;;12.23;100.00;99856.91;5057963;28;20040;-63
2023/10/24 06:29:04;;;;;;;2.67;1.00;;;;;;;12.25;100.00;99859.47;5057628;28;20042;-63
2023/10/24 06:31:30;;;;;;;2.92;1.13;;;;;;;12.25;100.00;99877.59;5064531;28;20454;-63
2023/10/24 06:33:55;;;;;;;1.80;1.30;;;;;;;12.26;100.00;99864.59;5040450;28;20036;-63
2023/10/24 06:36:21;;;;;;;1.50;1.20;;;;;;;12.26;100.00;99859.41;5061604;28;20036;-63
2023/10/24 06:38:46;;;;;;;2.13;1.50;;;;;;;12.28;100.00;99849.88;5061915;28;20098;-63
2023/10/24 06:41:13;;;;;;;2.67;1.10;;;;;;;12.27;100.00;99863.69;5059317;28;20024;-64
2023/10/24 06:43:39;;;;;;;1.77;1.38;;;;;;;12.29;100.00;99876.59;5059838;28;20429;-64
2023/10/24 06:46:05;;;;;;;4.60;1.40;;;;;;;12.28;100.00;99867.16;5052257;28;20732;-61
2023/10/24 06:48:31;;;;;;;4.05;1.20;;;;;;;12.27;100.00;99868.88;5039210;28;20054;-61
2023/10/24 06:50:57;;;;;;;2.35;1.20;;;;;;;12.29;100.00;99863.63;5055603;28;20041;-61
2023/10/24 06:53:22;;;;;;;2.38;1.20;;;;;;;12.28;100.00;99855.03;5057975;28;20051;-62
2023/10/24 06:55:48;;;;;;;2.22;1.38;;;;;;;12.28;100.00;99855.03;5033985;28;20044;-62
2023/10/24 06:58:13;;;;;;;2.50;1.50;;;;;;;12.28;100.00;99861.97;5053384;28;20044;-62
2023/10/24 07:00:39;;;;;;;1.30;1.08;;;;;;;12.27;100.00;99850.75;5050287;28;20037;-61
2023/10/24 07:03:04;;;;;;;2.67;1.15;;;;;;;12.28;100.00;99862.81;5054656;28;20041;-62
2023/10/24 07:05:30;;;;;;;2.60;1.33;;;;;;;12.30;100.00;99862.75;5051406;28;20051;-62
2023/10/24 07:07:55;;;;;;;3.33;1.30;;;;;;;12.32;100.00;99859.22;5053956;28;20036;-62
2023/10/24 07:10:20;;;;;;;2.20;1.30;;;;;;;12.34;100.00;99857.47;5036617;28;20467;-62
2023/10/24 07:12:46;;;;;;;2.08;1.10;;;;;;;12.37;100.00;99848.72;5059294;28;20036;-62
2023/10/24 07:15:12;;;;;;;6.90;1.63;;;;;;;12.39;100.00;99857.31;5051703;28;20131;-62
2023/10/24 07:17:37;;;;;;;4.60;1.33;;;;;;;12.40;100.00;99856.41;5057184;28;20060;-62
2023/10/24 07:20:04;;;;;;;2.42;1.33;;;;;;;12.42;100.00;99847.69;5056430;28;20032;-62
2023/10/24 07:22:30;;;;;;;2.83;1.35;;;;;;;12.47;100.00;99850.13;5054612;28;20045;-62
2023/10/24 07:24:55;;;;;;;2.75;1.70;;;;;;;12.50;100.00;99862.16;5053327;28;20036;-62
2023/10/24 07:27:21;;;;;;;4.93;1.88;;;;;;;12.52;100.00;99865.56;5053853;28;20923;-62
2023/10/24 07:29:47;;;;;;;2.28;1.88;;;;;;;12.56;100.00;99864.56;5053666;28;20712;-68
2023/10/24 07:32:13;;;;;;;8.25;2.42;;;;;;;12.58;100.00;99874.00;5037391;28;20033;-67
2023/10/24 07:34:42;;;;;;;4.20;3.03;;;;;;;12.65;100.00;99869.47;5055613;28;20560;-67
2023/10/24 07:37:08;;;;;;;8.05;3.00;;;;;;;12.72;100.00;99876.16;5052557;28;20124;-67
2023/10/24 07:39:34;;;;;;;8.02;3.03;;;;;;;12.76;100.00;99880.38;5054348;28;20178;-67
2023/10/24 07:42:00;;;;;;;6.45;4.60;;;;;;;12.83;100.00;99885.28;5058562;28;20051;-68
2023/10/24 07:44:25;;;;;;;23.90;17.35;;;;;;;12.87;100.00;99886.06;5052354;28;20476;-67
2023/10/24 07:46:51;;;;;;;37.70;33.80;;;;;;;12.93;100.00;99875.47;5055722;28;20029;-67
2023/10/24 07:49:16;;;;;;;48.08;34.63;;;;;;;12.97;100.00;99882.25;5054310;28;20055;-67
2023/10/24 07:51:41;;;;;;;30.52;24.15;;;;;;;13.05;100.00;99884.66;5054314;28;20043;-67
2023/10/24 07:54:07;;;;;;;13.85;9.52;;;;;;;13.09;100.00;99888.84;5055587;28;20063;-67
2023/10/24 07:56:32;;;;;;;7.28;4.28;;;;;;;13.15;100.00;99896.44;5054698;28;20041;-68
2023/10/24 07:58:57;;;;;;;3.83;2.60;;;;;;;13.21;100.00;99904.00;5052538;28;20121;-61
2023/10/24 08:01:23;;;;;;;3.63;1.92;;;;;;;13.25;100.00;99910.78;5056723;28;20151;-61
2023/10/24 08:03:48;;;;;;;4.22;2.05;;;;;;;13.31;100.00;99906.25;5051210;28;20061;-61
2023/10/24 08:06:15;;;;;;;4.07;1.30;;;;;;;13.37;100.00;99908.66;5057199;28;20173;-61
2023/10/24 08:08:42;;;;;;;5.28;1.80;;;;;;;13.42;100.00;99904.13;5052896;28;20159;-62
2023/10/24 08:11:08;;;;;;;5.93;1.90;;;;;;;13.46;100.00;99910.09;5055232;28;20072;-62
2023/10/24 08:13:34;;;;;;;2.90;1.95;;;;;;;13.49;100.00;99899.59;5056438;28;20111;-61
2023/10/24 08:15:59;;;;;;;6.30;1.60;;;;;;;13.52;100.00;99905.53;5047566;28;20704;-61
2023/10/24 08:18:25;;;;;;;4.55;1.63;;;;;;;13.60;100.00;99912.19;5051619;28;20126;-62
2023/10/24 08:20:50;;;;;;;4.38;1.45;;;;;;;13.65;100.00;99913.75;5054398;28;20076;-63
2023/10/24 08:23:16;;;;;;;4.85;1.60;;;;;;;13.69;100.00;99910.13;5056120;28;20033;-64
2023/10/24 08:25:41;;;;;;;2.95;1.17;;;;;;;13.74;100.00;99910.00;5054131;28;20032;-63
2023/10/24 08:28:06;;;;;;;6.28;1.98;;;;;;;13.75;100.00;99906.47;5053872;28;20065;-63
2023/10/24 08:30:32;;;;;;;2.47;1.40;;;;;;;13.76;100.00;99892.59;5054881;28;20117;-63
2023/10/24 08:32:58;;;;;;;5.10;1.50;;;;;;;13.80;100.00;99902.81;5052726;28;20827;-63
2023/10/24 08:35:23;;;;;;;5.30;1.38;;;;;;;13.84;100.00;99909.59;5054694;28;20495;-63
2023/10/24 08:37:49;;;;;;;4.90;1.48;;;;;;;13.87;100.00;99912.09;5036962;28;20039;-62
2023/10/24 08:40:14;;;;;;;4.40;1.27;;;;;;;13.92;99.81;99907.59;5056272;28;20035;-67
2023/10/24 08:42:41;;;;;;;4.88;1.30;;;;;;;13.96;99.25;99911.78;5040644;28;20040;-66
2023/10/24 08:45:08;;;;;;;3.22;1.23;;;;;;;14.01;98.44;99919.38;5053568;28;20078;-67
2023/10/24 08:47:34;;;;;;;3.95;1.70;;;;;;;14.04;97.17;99920.13;5056843;28;20097;-66
2023/10/24 08:50:01;;;;;;;5.82;1.30;;;;;;;14.05;96.42;99918.38;5055250;28;20048;-67
2023/10/24 08:52:33;;;;;;;4.43;1.20;;;;;;;14.08;95.92;99910.47;5051219;28;20082;-67
2023/10/24 08:55:06;;;;;;;3.33;1.25;;;;;;;14.11;95.40;99899.97;5052031;28;20793;-67
2023/10/24 08:57:42;;;;;;;3.67;1.52;;;;;;;14.23;95.27;99896.06;5050852;28;20048;-67
2023/10/24 09:00:13;;;;;;;3.10;1.45;;;;;;;14.30;94.71;99901.00;5048045;28;20050;-67
2023/10/24 09:02:41;;;;;;;3.30;1.30;;;;;;;14.33;94.65;99910.44;5056300;28;20674;-67
2023/10/24 09:05:09;;;;;;;1.52;0.85;;;;;;;14.28;93.23;99909.75;5052459;28;21568;-67
2023/10/24 09:07:35;;;;;;;2.33;1.15;;;;;;;14.25;93.63;99908.09;5052804;28;20043;-66
2023/10/24 09:10:01;;;;;;;2.60;1.02;;;;;;;14.19;91.79;99902.31;5052081;28;20810;-67
2023/10/24 09:12:32;;;;;;;3.85;1.10;;;;;;;14.16;92.04;99908.44;5054113;28;20119;-68
2023/10/24 09:14:58;;;;;;;3.85;1.70;;;;;;;14.11;90.88;99899.97;5051244;28;20036;-68
2023/10/24 09:17:25;;;;;;;1.65;0.95;;;;;;;14.05;92.00;99897.59;5056595;28;20515;-67
2023/10/24 09:19:51;;;;;;;3.25;0.93;;;;;;;14.03;90.24;99889.03;5055648;28;20024;-67
2023/10/24 09:22:17;;;;;;;2.63;0.90;;;;;;;14.05;91.26;99895.84;5054765;28;20507;-68
2023/10/24 09:24:47;;;;;;;3.35;0.90;;;;;;;14.04;91.80;99888.09;5054691;28;20040;-67
2023/10/24 09:27:17;;;;;;;2.47;1.20;;;;;;;14.03;92.83;99886.44;5059576;28;20139;-68
2023/10/24 09:29:42;;;;;;;3.15;1.02;;;;;;;14.05;91.47;99876.81;5058897;28;20094;-67
2023/10/24 09:32:17;;;;;;;1.20;0.80;;;;;;;14.14;91.79;99886.88;5058117;28;20036;-66
2023/10/24 09:34:47;;;;;;;4.75;0.93;;;;;;;14.19;90.68;99864.16;5058367;28;20518;-67
2023/10/24 09:37:16;;;;;;;1.70;0.90;;;;;;;14.30;90.29;99876.75;5058644;28;20032;-66
2023/10/24 09:39:54;;;;;;;2.90;1.10;;;;;;;14.39;90.00;99859.09;5054860;28;20033;-67
2023/10/24 09:42:25;;;;;;;1.65;1.10;;;;;;;14.56;88.83;99855.84;5054773;28;20039;-67
2023/10/24 09:44:54;;;;;;;2.97;1.33;;;;;;;14.79;88.23;99852.31;5055714;28;20046;-67
2023/10/24 09:47:20;;;;;;;7.95;1.50;;;;;;;14.99;87.06;99839.38;5056014;28;20044;-61
2023/10/24 09:49:46;;;;;;;2.42;1.10;;;;;;;15.13;86.64;99830.09;5041680;28;20020;-62
2023/10/24 09:52:11;;;;;;;3.85;1.33;;;;;;;15.33;86.32;99824.03;5056135;28;20044;-61
2023/10/24 09:54:39;;;;;;;5.40;1.20;;;;;;;15.44;85.73;99828.75;5056886;28;20036;-61
2023/10/24 09:57:05;;;;;;;3.20;1.10;;;;;;;15.45;84.59;99826.09;5054709;28;20068;-62
2023/10/24 09:59:31;;;;;;;4.95;1.30;;;;;;;15.45;85.60;99827.84;5057546;28;20036;-62
2023/10/24 10:01:58;;;;;;;2.30;1.00;;;;;;;15.45;85.33;99833.91;5057032;28;20032;-62
2023/10/24 10:04:25;;;;;;;2.45;1.17;;;;;;;15.48;86.12;99848.56;5054608;28;20040;-61
2023/10/24 10:06:51;;;;;;;2.40;1.08;;;;;;;15.52;85.57;99832.72;5054940;28;20747;-61
2023/10/24 10:09:19;;;;;;;2.03;0.90;;;;;;;15.47;86.26;99829.47;5061041;28;20066;-61
2023/10/24 10:11:47;;;;;;;5.20;1.50;;;;;;;15.44;86.65;99823.56;5060401;28;20047;-62
2023/10/24 10:14:22;;;;;;;3.42;1.23;;;;;;;15.47;87.35;99826.88;5056382;28;20032;-62
2023/10/24 10:17:15;;;;;;;3.03;1.42;;;;;;;15.46;87.14;99837.38;5055319;28;20033;-62
2023/10/24 10:20:00;;;;;;;2.47;1.20;;;;;;;15.46;87.84;99834.78;5057192;28;20064;-62
2023/10/24 10:22:53;;;;;;;2.60;1.40;;;;;;;15.38;88.16;99837.69;5060865;28;20952;-62
2023/10/24 10:25:39;;;;;;;4.40;1.25;;;;;;;15.42;88.08;99825.38;5047492;28;20407;-62
2023/10/24 10:28:04;;;;;;;10.05;3.75;;;;;;;15.41;88.23;99827.13;5056760;28;20035;-62
2023/10/24 10:30:43;;;;;;;2.53;1.38;;;;;;;15.49;88.30;99821.63;5054217;28;20040;-61
2023/10/24 10:33:22;;;;;;;2.70;1.23;;;;;;;15.53;88.54;99823.16;5056374;28;20064;-62
2023/10/24 10:35:55;;;;;;;4.03;1.30;;;;;;;15.48;88.02;99815.56;5059334;28;20082;-61
2023/10/24 10:38:46;;;;;;;4.10;0.90;;;;;;;15.47;88.19;99819.06;5038030;28;20036;-61
2023/10/24 10:41:38;;;;;;;4.65;0.98;;;;;;;15.32;88.13;99811.91;5055918;28;20035;-62
2023/10/24 10:44:40;;;;;;;2.30;1.33;;;;;;;15.23;90.12;99822.72;5032737;28;20037;-61
2023/10/24 10:47:07;;;;;;;4.82;1.92;;;;;;;15.22;89.56;99813.22;5037805;28;20052;-63
2023/10/24 10:49:50;;;;;;;3.10;1.50;;;;;;;15.30;90.69;99813.75;5038252;28;20111;-64
2023/10/24 10:53:10;;;;;;;6.28;3.42;;;;;;;15.13;90.56;99800.59;5053002;28;20032;-63
2023/10/24 10:55:55;;;;;;;3.97;2.00;;;;;;;15.15;92.26;99804.81;4947535;28;20066;-63
2023/10/24 10:58:42;;;;;;;4.40;1.77;;;;;;;15.05;93.23;99797.44;5041702;28;20071;-63
2023/10/24 11:01:21;;;;;;;4.82;1.55;;;;;;;14.87;95.16;99798.25;5055116;28;20032;-64
2023/10/24 11:03:48;;;;;;;4.82;1.25;;;;;;;14.72;96.35;99797.13;5050941;28;20091;-64
2023/10/24 11:06:15;;;;;;;7.63;2.35;;;;;;;14.58;97.34;99792.44;5051810;28;20435;-63
2023/10/24 11:08:43;;;;;;;4.80;1.98;;;;;;;14.50;98.24;99785.88;5049831;28;20059;-64
2023/10/24 11:11:10;;;;;;;6.28;1.63;;;;;;;14.47;97.97;99788.59;5037239;28;20075;-64
2023/10/24 11:13:38;;;;;;;6.22;2.85;;;;;;;14.49;98.45;99782.41;5062210;28;20086;-64
2023/10/24 11:16:11;;;;;;;4.32;2.50;;;;;;;14.51;99.89;99771.97;5042396;28;20033;-64
2023/10/24 11:18:38;;;;;;;1.83;1.30;;;;;;;14.51;99.46;99777.16;5051665;28;20032;-64
2023/10/24 11:21:06;;;;;;;2.97;1.13;;;;;;;14.51;99.94;99767.59;5057120;28;20037;-64
2023/10/24 11:23:32;;;;;;;5.53;2.00;;;;;;;14.49;100.00;99777.22;5054242;28;20059;-64
2023/10/24 11:25:59;;;;;;;3.00;1.77;;;;;;;14.46;100.00;99766.94;5053444;28;20037;-64